createdAt,value
2022-11-01T00:00:10.556Z,99.10
2022-11-01T00:03:15.711Z,99.32
2022-11-01T00:06:20.243Z,99.26
2022-11-01T00:09:25.148Z,98.75
2022-11-01T00:12:31.877Z,98.71
2022-11-01T00:15:38.073Z,99.49
2022-11-01T00:18:43.211Z,99.71
2022-11-01T00:21:48.847Z,99.22
2022-11-01T00:24:54.993Z,99.27
2022-11-01T00:27:59.962Z,98.97
2022-11-01T00:31:10.233Z,99.34
2022-11-01T00:34:18.059Z,98.76
2022-11-01T00:37:23.493Z,99.22
2022-11-01T00:40:28.993Z,99.84
2022-11-01T00:43:34.763Z,100.00
2022-11-01T00:46:41.716Z,100.00
2022-11-01T00:49:46.588Z,99.86
2022-11-01T00:52:51.525Z,100.00
2022-11-01T00:56:01.221Z,99.92
2022-11-01T00:59:07.279Z,100.00
2022-11-01T01:02:13.866Z,100.00
2022-11-01T01:05:22.079Z,100.00
2022-11-01T01:08:27.992Z,100.00
2022-11-01T01:11:33.016Z,100.00
2022-11-01T01:14:38.068Z,100.00
2022-11-01T01:17:47.585Z,100.00
2022-11-01T01:20:53.060Z,100.00
2022-11-01T01:23:57.944Z,100.00
2022-11-01T01:27:03.740Z,100.00
2022-11-01T01:30:12.102Z,100.00
2022-11-01T01:33:18.910Z,100.00
2022-11-01T01:36:23.754Z,100.00
2022-11-01T01:39:28.778Z,99.68
2022-11-01T01:42:35.497Z,99.39
2022-11-01T01:45:42.069Z,99.59
2022-11-01T01:48:53.326Z,99.61
2022-11-01T01:51:58.373Z,99.93
2022-11-01T01:55:08.652Z,99.99
2022-11-01T01:58:15.749Z,100.00
2022-11-01T02:01:20.939Z,99.98
2022-11-01T02:04:32.757Z,100.00
2022-11-01T02:07:37.598Z,100.00
2022-11-01T02:10:43.852Z,100.00
2022-11-01T02:13:49.194Z,100.00
2022-11-01T02:17:05.592Z,100.00
2022-11-01T02:20:48.382Z,100.00
2022-11-01T02:24:10.230Z,100.00
2022-11-01T02:27:25.429Z,100.00
2022-11-01T02:30:41.829Z,100.00
2022-11-01T02:33:54.106Z,100.00
2022-11-01T02:37:03.850Z,100.00
2022-11-01T02:40:11.428Z,100.00
2022-11-01T02:43:21.381Z,100.00
2022-11-01T02:46:47.067Z,100.00
2022-11-01T02:49:55.992Z,100.00
2022-11-01T02:53:02.841Z,100.00
2022-11-01T02:56:08.228Z,100.00
2022-11-01T02:59:19.855Z,100.00
2022-11-01T03:02:39.904Z,100.00
2022-11-01T03:05:54.388Z,100.00
2022-11-01T03:09:02.529Z,100.00
2022-11-01T03:12:12.652Z,100.00
2022-11-01T03:15:23.450Z,100.00
2022-11-01T03:18:34.361Z,100.00
2022-11-01T03:21:45.229Z,100.00
2022-11-01T03:24:54.328Z,100.00
2022-11-01T03:28:01.023Z,100.00
2022-11-01T03:31:11.544Z,100.00
2022-11-01T03:34:19.353Z,100.00
2022-11-01T03:37:27.624Z,100.00
2022-11-01T03:40:33.792Z,100.00
2022-11-01T03:43:39.791Z,100.00
2022-11-01T03:46:45.799Z,100.00
2022-11-01T03:49:50.611Z,100.00
2022-11-01T03:52:58.474Z,100.00
2022-11-01T03:56:03.216Z,100.00
2022-11-01T03:59:08.441Z,100.00
2022-11-01T04:02:13.427Z,100.00
2022-11-01T04:05:19.067Z,100.00
2022-11-01T04:08:25.128Z,100.00
2022-11-01T04:11:30.011Z,100.00
2022-11-01T04:14:51.232Z,100.00
2022-11-01T04:18:22.339Z,100.00
2022-11-01T04:21:31.363Z,100.00
2022-11-01T04:24:37.719Z,100.00
2022-11-01T04:27:42.202Z,100.00
2022-11-01T04:30:46.898Z,100.00
2022-11-01T04:33:51.916Z,100.00
2022-11-01T04:36:56.843Z,100.00
2022-11-01T04:40:03.281Z,100.00
2022-11-01T04:43:08.270Z,100.00
2022-11-01T04:46:13.956Z,100.00
2022-11-01T04:49:19.230Z,100.00
2022-11-01T04:52:24.077Z,98.61
2022-11-01T04:55:30.696Z,96.83
2022-11-01T04:58:43.062Z,96.13
2022-11-01T05:01:50.619Z,95.04
2022-11-01T05:04:55.558Z,93.20
2022-11-01T05:08:04.277Z,91.78
2022-11-01T05:11:10.891Z,90.21
2022-11-01T05:14:15.828Z,89.50
2022-11-01T05:17:20.765Z,88.51
2022-11-01T05:20:27.146Z,87.71
2022-11-01T05:23:31.755Z,86.89
2022-11-01T05:26:37.925Z,86.84
2022-11-01T05:29:43.433Z,86.11
2022-11-01T05:32:48.129Z,85.92
2022-11-01T05:35:53.009Z,86.07
2022-11-01T05:38:58.639Z,87.60
2022-11-01T05:42:04.717Z,88.45
2022-11-01T05:45:10.442Z,88.67
2022-11-01T05:48:15.094Z,89.82
2022-11-01T05:51:20.421Z,90.32
2022-11-01T05:54:25.736Z,91.54
2022-11-01T05:57:33.560Z,92.24
2022-11-01T06:00:40.857Z,92.96
2022-11-01T06:03:45.268Z,94.00
2022-11-01T06:06:50.101Z,95.32
2022-11-01T06:09:54.787Z,95.61
2022-11-01T06:13:01.481Z,95.40
2022-11-01T06:16:08.078Z,94.96
2022-11-01T06:19:12.993Z,95.66
2022-11-01T06:22:18.409Z,95.78
2022-11-01T06:25:23.656Z,95.70
2022-11-01T06:28:30.136Z,96.00
2022-11-01T06:31:35.416Z,96.49
2022-11-01T06:34:42.472Z,96.66
2022-11-01T06:37:49.690Z,96.82
2022-11-01T06:40:54.946Z,97.55
2022-11-01T06:44:01.192Z,98.07
2022-11-01T06:47:05.915Z,98.30
2022-11-01T06:50:11.127Z,98.56
2022-11-01T06:53:16.093Z,98.63
2022-11-01T06:56:21.263Z,98.58
2022-11-01T06:59:29.785Z,98.29
2022-11-01T07:02:34.636Z,98.62
2022-11-01T07:05:40.684Z,99.60
2022-11-01T07:08:45.174Z,100.00
2022-11-01T07:11:49.962Z,100.00
2022-11-01T07:14:56.807Z,100.00
2022-11-01T07:18:04.242Z,100.00
2022-11-01T07:21:09.875Z,100.00
2022-11-01T07:24:14.630Z,100.00
2022-11-01T07:27:20.671Z,100.00
2022-11-01T07:30:26.972Z,100.00
2022-11-01T07:33:33.958Z,100.00
2022-11-01T07:36:38.973Z,100.00
2022-11-01T07:39:43.754Z,99.34
2022-11-01T07:42:48.734Z,98.83
2022-11-01T07:45:55.210Z,98.03
2022-11-01T07:49:00.778Z,97.66
2022-11-01T07:52:05.688Z,97.13
2022-11-01T07:55:11.808Z,96.27
2022-11-01T07:58:18.035Z,95.83
2022-11-01T08:01:24.775Z,95.20
2022-11-01T08:04:31.395Z,94.93
2022-11-01T08:07:40.465Z,93.29
2022-11-01T08:10:45.372Z,91.86
2022-11-01T08:13:50.171Z,91.95
2022-11-01T08:17:00.886Z,92.46
2022-11-01T08:20:05.927Z,92.18
2022-11-01T08:23:11.406Z,91.82
2022-11-01T08:26:16.514Z,91.97
2022-11-01T08:29:21.838Z,91.77
2022-11-01T08:32:29.247Z,91.46
2022-11-01T08:35:35.114Z,91.25
2022-11-01T08:38:39.810Z,90.81
2022-11-01T08:41:44.932Z,90.82
2022-11-01T08:44:49.900Z,90.77
2022-11-01T08:48:01.892Z,90.43
2022-11-01T08:51:06.940Z,91.26
2022-11-01T08:54:12.547Z,91.51
2022-11-01T08:57:17.825Z,91.02
2022-11-01T09:00:22.415Z,90.08
2022-11-01T09:03:28.828Z,88.56
2022-11-01T09:06:36.368Z,88.80
2022-11-01T09:09:41.570Z,89.12
2022-11-01T09:12:46.445Z,88.41
2022-11-01T09:15:51.986Z,88.16
2022-11-01T09:19:02.022Z,88.31
2022-11-01T09:22:10.562Z,88.11
2022-11-01T09:25:18.235Z,87.57
2022-11-01T09:28:23.471Z,87.05
2022-11-01T09:31:28.852Z,87.03
2022-11-01T09:34:40.347Z,86.06
2022-11-01T09:38:04.487Z,81.52
2022-11-01T09:41:48.593Z,72.08
2022-11-01T09:44:57.748Z,67.41
2022-11-01T09:48:06.256Z,64.03
2022-11-01T09:51:19.376Z,60.51
2022-11-01T09:54:27.018Z,58.40
2022-11-01T09:57:38.040Z,60.53
2022-11-01T10:00:51.939Z,61.71
2022-11-01T10:04:16.131Z,63.34
2022-11-01T10:07:30.063Z,64.47
2022-11-01T10:10:41.289Z,66.87
2022-11-01T10:13:54.852Z,68.65
2022-11-01T10:17:09.085Z,69.34
2022-11-01T10:20:15.662Z,69.77
2022-11-01T10:23:38.989Z,70.45
2022-11-01T10:26:45.844Z,70.85
2022-11-01T10:29:57.903Z,72.09
2022-11-01T10:33:18.698Z,71.54
2022-11-01T10:36:29.669Z,71.23
2022-11-01T10:40:01.318Z,72.75
2022-11-01T10:43:15.385Z,73.75
2022-11-01T10:46:26.930Z,71.32
2022-11-01T10:53:04.003Z,71.07
2022-11-01T10:56:13.877Z,71.15
2022-11-01T10:59:22.677Z,72.02
2022-11-01T11:02:30.845Z,71.74
2022-11-01T11:05:35.807Z,70.35
2022-11-01T11:08:43.118Z,71.15
2022-11-01T11:11:51.968Z,71.08
2022-11-01T11:15:01.876Z,69.26
2022-11-01T11:18:21.617Z,68.91
2022-11-01T11:21:28.234Z,67.23
2022-11-01T11:24:36.601Z,66.91
2022-11-01T11:27:47.753Z,67.18
2022-11-01T11:30:52.764Z,67.60
2022-11-01T11:34:01.653Z,70.00
2022-11-01T11:37:08.884Z,69.07
2022-11-01T11:40:22.965Z,67.79
2022-11-01T11:43:35.066Z,67.12
2022-11-01T11:46:39.917Z,67.63
2022-11-01T11:49:45.066Z,68.08
2022-11-01T11:52:52.163Z,68.80
2022-11-01T11:56:00.048Z,68.85
2022-11-01T11:59:12.674Z,69.64
2022-11-01T12:02:22.278Z,72.81
2022-11-01T12:05:29.057Z,74.67
2022-11-01T12:08:45.188Z,76.36
2022-11-01T12:11:50.133Z,76.46
2022-11-01T12:14:56.882Z,77.56
2022-11-01T12:18:15.809Z,75.70
2022-11-01T12:21:25.759Z,76.28
2022-11-01T12:24:38.340Z,76.08
2022-11-01T12:27:51.151Z,76.70
2022-11-01T12:31:05.545Z,76.17
2022-11-01T12:34:20.142Z,75.11
2022-11-01T12:37:30.003Z,73.89
2022-11-01T12:40:38.673Z,75.25
2022-11-01T12:43:56.489Z,75.58
2022-11-01T12:47:08.617Z,75.81
2022-11-01T12:50:21.749Z,75.82
2022-11-01T12:53:30.430Z,76.09
2022-11-01T12:56:36.001Z,76.43
2022-11-01T12:59:41.075Z,73.69
2022-11-01T13:03:09.665Z,71.74
2022-11-01T13:06:30.959Z,71.04
2022-11-01T13:09:47.525Z,70.19
2022-11-01T13:13:00.852Z,70.34
2022-11-01T13:16:11.801Z,69.37
2022-11-01T13:19:23.978Z,70.39
2022-11-01T13:22:37.753Z,71.68
2022-11-01T13:25:49.348Z,71.53
2022-11-01T13:29:09.131Z,71.39
2022-11-01T13:32:22.237Z,70.14
2022-11-01T13:35:56.392Z,69.96
2022-11-01T13:39:15.343Z,70.08
2022-11-01T13:42:24.283Z,70.32
2022-11-01T13:45:51.800Z,69.61
2022-11-01T13:49:27.077Z,70.67
2022-11-01T13:52:36.183Z,71.03
2022-11-01T13:55:45.275Z,71.27
2022-11-01T13:58:50.366Z,70.78
2022-11-01T14:01:55.020Z,71.42
2022-11-01T14:04:59.987Z,71.11
2022-11-01T14:08:27.519Z,70.34
2022-11-01T14:11:50.914Z,70.85
2022-11-01T14:14:56.994Z,71.48
2022-11-01T14:18:10.000Z,72.04
2022-11-01T14:21:29.001Z,72.79
2022-11-01T14:24:35.838Z,73.08
2022-11-01T14:27:43.930Z,72.59
2022-11-01T14:30:53.746Z,72.87
2022-11-01T14:34:00.347Z,72.94
2022-11-01T14:37:31.367Z,73.77
2022-11-01T14:40:42.004Z,73.40
2022-11-01T14:43:49.711Z,74.06
2022-11-01T14:47:01.005Z,75.59
2022-11-01T14:50:17.021Z,75.84
2022-11-01T14:53:28.343Z,76.63
2022-11-01T14:56:40.893Z,77.75
2022-11-01T14:59:45.909Z,77.90
2022-11-01T15:02:51.229Z,77.85
2022-11-01T15:05:56.043Z,77.76
2022-11-01T15:09:03.247Z,77.90
2022-11-01T15:12:12.168Z,78.28
2022-11-01T15:15:20.916Z,78.61
2022-11-01T15:18:26.141Z,79.46
2022-11-01T15:21:31.598Z,79.29
2022-11-01T15:24:37.888Z,78.93
2022-11-01T15:27:46.772Z,79.06
2022-11-01T15:30:57.656Z,79.26
2022-11-01T15:34:04.696Z,79.75
2022-11-01T15:37:22.976Z,80.32
2022-11-01T15:40:31.197Z,80.91
2022-11-01T15:43:37.228Z,82.08
2022-11-01T15:46:43.905Z,82.68
2022-11-01T15:49:53.059Z,83.23
2022-11-01T15:53:04.344Z,83.57
2022-11-01T15:56:15.557Z,84.31
2022-11-01T15:59:29.076Z,84.60
2022-11-01T16:02:40.706Z,84.96
2022-11-01T16:05:49.714Z,85.04
2022-11-01T16:09:00.129Z,85.88
2022-11-01T16:12:07.571Z,86.12
2022-11-01T16:15:24.284Z,86.47
2022-11-01T16:18:29.311Z,86.61
2022-11-01T16:21:34.189Z,86.59
2022-11-01T16:24:38.693Z,86.53
2022-11-01T16:28:05.727Z,85.91
2022-11-01T16:31:22.965Z,86.90
2022-11-01T16:34:29.653Z,87.06
2022-11-01T16:37:39.547Z,87.38
2022-11-01T16:40:44.156Z,87.90
2022-11-01T16:43:50.225Z,88.48
2022-11-01T16:46:57.477Z,89.14
2022-11-01T16:50:02.319Z,89.38
2022-11-01T16:53:12.372Z,89.60
2022-11-01T16:56:36.254Z,89.28
2022-11-01T16:59:44.050Z,90.21
2022-11-01T17:02:50.358Z,89.97
2022-11-01T17:05:56.477Z,89.97
2022-11-01T17:09:01.087Z,90.46
2022-11-01T17:12:06.705Z,89.74
2022-11-01T17:15:14.447Z,89.94
2022-11-01T17:18:27.120Z,90.19
2022-11-01T17:21:40.355Z,90.64
2022-11-01T17:24:45.269Z,91.62
2022-11-01T17:27:52.151Z,92.57
2022-11-01T17:30:59.079Z,93.24
2022-11-01T17:34:05.119Z,93.08
2022-11-01T17:37:14.810Z,93.01
2022-11-01T17:40:22.412Z,92.71
2022-11-01T17:43:27.142Z,93.39
2022-11-01T17:46:31.913Z,93.78
2022-11-01T17:49:38.501Z,93.60
2022-11-01T17:52:43.468Z,92.96
2022-11-01T17:55:48.571Z,92.83
2022-11-01T17:58:54.048Z,92.59
2022-11-01T18:01:58.999Z,92.73
2022-11-01T18:05:05.416Z,92.56
2022-11-01T18:08:17.748Z,92.39
2022-11-01T18:11:36.450Z,92.37
2022-11-01T18:18:07.290Z,92.07
2022-11-01T18:21:22.397Z,92.51
2022-11-01T18:24:37.195Z,92.70
2022-11-01T18:27:42.218Z,93.04
2022-11-01T18:43:23.769Z,91.62
2022-11-01T18:46:38.590Z,92.08
2022-11-01T18:49:46.001Z,92.00
2022-11-01T18:52:51.000Z,92.43
2022-11-01T18:55:58.304Z,91.91
2022-11-01T18:59:04.278Z,90.85
2022-11-01T19:02:16.654Z,91.30
2022-11-01T19:05:29.661Z,90.96
2022-11-01T19:08:33.999Z,90.99
2022-11-01T19:11:40.176Z,91.19
2022-11-01T19:14:46.687Z,90.86
2022-11-01T19:17:59.745Z,90.78
2022-11-01T19:21:16.483Z,90.73
2022-11-01T19:24:47.133Z,93.28
2022-11-01T19:27:57.359Z,94.06
2022-11-01T19:31:09.511Z,93.42
2022-11-01T19:34:19.134Z,92.57
2022-11-01T19:37:33.262Z,91.92
2022-11-01T19:40:41.709Z,92.01
2022-11-01T19:43:48.386Z,91.16
2022-11-01T19:46:56.801Z,91.71
2022-11-01T19:50:01.481Z,91.22
2022-11-01T19:53:18.655Z,91.03
2022-11-01T19:56:26.629Z,90.11
2022-11-01T19:59:34.777Z,89.79
2022-11-01T20:02:39.867Z,89.33
2022-11-01T20:05:44.773Z,89.56
2022-11-01T20:08:52.204Z,90.55
2022-11-01T20:11:57.112Z,90.47
2022-11-01T20:15:03.301Z,90.67
2022-11-01T20:18:08.285Z,91.33
2022-11-01T20:21:13.324Z,91.57
2022-11-01T20:24:17.920Z,92.46
2022-11-01T20:27:23.604Z,92.18
2022-11-01T20:30:30.028Z,92.01
2022-11-01T20:33:38.396Z,91.60
2022-11-01T20:36:46.827Z,92.14
2022-11-01T20:39:58.886Z,92.14
2022-11-01T20:43:03.645Z,92.05
2022-11-01T20:46:11.014Z,92.09
2022-11-01T20:49:16.264Z,91.33
2022-11-01T20:52:39.757Z,91.45
2022-11-01T20:55:44.998Z,90.65
2022-11-01T20:58:49.835Z,91.18
2022-11-01T21:01:56.376Z,90.46
2022-11-01T21:05:05.633Z,90.81
2022-11-01T21:08:22.826Z,91.11
2022-11-01T21:11:44.351Z,91.09
2022-11-01T21:14:54.338Z,91.36
2022-11-01T21:18:36.395Z,91.46
2022-11-01T21:21:46.554Z,90.10
2022-11-01T21:24:51.959Z,89.82
2022-11-01T21:27:58.443Z,90.08
2022-11-01T21:31:13.488Z,90.72
2022-11-01T21:34:27.876Z,90.87
2022-11-01T21:37:32.823Z,91.17
2022-11-01T21:40:38.005Z,91.02
2022-11-01T21:43:45.980Z,90.65
2022-11-01T21:46:53.117Z,90.42
2022-11-01T21:49:59.501Z,90.74
2022-11-01T21:53:04.171Z,90.57
2022-11-01T21:56:09.562Z,91.34
2022-11-01T21:59:14.320Z,90.86
2022-11-01T22:02:19.251Z,90.60
2022-11-01T22:05:25.232Z,90.88
2022-11-01T22:08:29.731Z,90.41
2022-11-01T22:11:34.392Z,89.85
2022-11-01T22:14:38.995Z,89.88
2022-11-01T22:17:44.371Z,90.11
2022-11-01T22:20:52.687Z,90.74
2022-11-01T22:23:59.843Z,89.96
2022-11-01T22:27:05.350Z,89.56
2022-11-01T22:30:11.514Z,89.77
2022-11-01T22:33:16.107Z,89.83
2022-11-01T22:36:24.656Z,87.96
2022-11-01T22:39:31.638Z,88.24
2022-11-01T22:42:36.192Z,88.06
2022-11-01T22:45:43.006Z,88.71
2022-11-01T22:48:47.503Z,89.00
2022-11-01T22:51:55.848Z,89.41
2022-11-01T22:55:06.123Z,89.71
2022-11-01T22:58:34.376Z,89.22
2022-11-01T23:01:39.470Z,89.50
2022-11-01T23:04:44.057Z,88.67
2022-11-01T23:07:51.593Z,88.87
2022-11-01T23:10:56.378Z,89.57
2022-11-01T23:14:19.146Z,89.07
2022-11-01T23:17:26.883Z,88.63
2022-11-01T23:20:31.605Z,89.06
2022-11-01T23:23:39.633Z,88.81
2022-11-01T23:26:45.679Z,88.57
2022-11-01T23:29:53.722Z,87.88
2022-11-01T23:32:59.632Z,87.51
2022-11-01T23:36:04.477Z,88.33
2022-11-01T23:39:13.502Z,88.62
2022-11-01T23:42:22.483Z,89.16
2022-11-01T23:45:31.712Z,89.02
2022-11-01T23:48:41.586Z,89.00
2022-11-01T23:51:49.161Z,88.41
2022-11-01T23:54:56.154Z,88.55
2022-11-01T23:58:04.113Z,87.60
